Flight Track Log - Related Links

Times and Time Zones

All times are in EDT time to prevent confusion due to time zone crossing. See the BJS439 flight status page for this flight to view local times or setup timezone preferences in your user account.

Time Position Orientation Groundspeed Altitude Reporting Facility
EDT Latitude Longitude Course Direction KTS MPH feet Rate Location/Type
Sun 10:40:06 AM 41.4667 -73.2000 153° Southeast 246 283 4,500  Level New York TRACON
Sun 10:41:06 AM 41.4000 -73.1833 169° South 289 333 6,400 1,750 Climbing New York TRACON
Sun 10:42:06 AM 41.3167 -73.1500 163° South 306 352 8,000 1,231 Climbing New York TRACON
Sun 10:43:03 AM 41.2544 -73.0917 145° Southeast 310 357 8,800 513 Climbing Boston Center
Sun 10:44:03 AM 41.1881 -73.0194 141° Southeast 310 357 9,000 513 Climbing Boston Center
Sun 10:45:00 AM 40.9101 -72.6790 153° Southeast  Level FlightAware Approximate
Sun 10:45:00 AM 41.1197 -72.9497 142° Southeast 310 357 9,800  Level Boston Center
Sun 10:46:01 AM 41.0511 -72.8750 141° Southeast 317 365 10,000 446 Climbing Boston Center
Sun 10:47:01 AM 40.9847 -72.8086 143° Southeast 322 371 10,700 2,132 Climbing Boston Center
Sun 10:48:02 AM 40.9078 -72.7475 149° Southeast 327 376 14,300 3,989 Climbing Boston Center
Sun 10:50:03 AM 40.7783 -72.8594 213° Southwest 260 299 22,800 3,721 Climbing Boston Center
Sun 10:51:01 AM 40.7072 -72.9275 216° Southwest 289 333 25,400 2,571 Climbing Boston Center
Sun 10:52:02 AM 40.6317 -73.0006 216° Southwest 324 373 27,900 2,471 Climbing Boston Center
Sun 10:53:00 AM 40.5542 -73.0792 218° Southwest 344 396 30,300 2,370 Climbing Boston Center
Sun 10:54:01 AM 40.4747 -73.1575 217° Southwest 350 403 32,600 2,213 Climbing Boston Center
Sun 10:55:02 AM 40.3950 -73.2358 217° Southwest 355 409 34,800 1,822 Climbing Boston Center
Sun 10:57:12 AM 40.2208 -73.4181 219° Southwest 358 412 38,400 1,421 Climbing Washington Center
Sun 10:58:12 AM 40.1492 -73.4853 216° Southwest 358 412 39,300 750 Climbing Washington Center
Sun 10:59:12 AM 40.0672 -73.5636 216° Southwest 363 418 39,900 350 Climbing Washington Center
Sun 11:00:12 AM 39.9831 -73.6447 216° Southwest 369 425 40,000 50 Climbing Washington Center
Sun 11:01:12 AM 39.8928 -73.7336 217° Southwest 391 450 40,000  Level Washington Center
Sun 11:02:12 AM 39.8006 -73.8253 217° Southwest 408 470 40,000  Level Washington Center
Sun 11:03:12 AM 39.6997 -73.9194 216° Southwest 415 478 40,000  Level Washington Center
Sun 11:04:12 AM 39.6114 -74.0078 218° Southwest 415 478 40,000  Level Washington Center
Sun 11:05:12 AM 39.5228 -74.0958 217° Southwest 408 470 40,000  Level Washington Center
Sun 11:06:13 AM 39.4342 -74.1783 216° Southwest 402 463 40,000  Level Washington Center
Sun 11:07:12 AM 39.3414 -74.2658 216° Southwest 409 471 40,000  Level Washington Center
Sun 11:08:12 AM 39.2508 -74.3533 217° Southwest 409 471 40,000  Level Washington Center
Sun 11:09:13 AM 39.1600 -74.4406 217° Southwest 409 471 40,000  Level Washington Center
Sun 11:10:12 AM 39.0711 -74.5275 217° Southwest 403 464 40,000  Level Washington Center
Sun 11:11:12 AM 38.9800 -74.6117 216° Southwest 403 464 40,000  Level Washington Center
Sun 11:12:13 AM 38.8892 -74.6983 217° Southwest 403 464 40,000  Level Washington Center
Sun 11:13:12 AM 38.7958 -74.7819 215° Southwest 408 470 40,000  Level Washington Center
Sun 11:14:12 AM 38.7067 -74.8681 217° Southwest 408 470 40,000  Level Washington Center
Sun 11:15:12 AM 38.6156 -74.9539 216° Southwest 408 470 40,000  Level Washington Center
Sun 11:16:12 AM 38.5242 -75.0369 215° Southwest 408 470 40,000  Level Washington Center
Sun 11:17:12 AM 38.4350 -75.1172 215° Southwest 403 464 40,000  Level Washington Center
Sun 11:18:12 AM 38.3433 -75.2000 215° Southwest 403 464 40,000  Level Washington Center
Sun 11:19:12 AM 38.2622 -75.2769 217° Southwest 408 470 40,000  Level Washington Center
Sun 11:20:12 AM 38.1728 -75.3619 217° Southwest 408 470 40,000  Level Washington Center
Sun 11:21:12 AM 38.0814 -75.4442 215° Southwest 408 470 40,000  Level Washington Center
Sun 11:22:12 AM 37.9856 -75.5258 214° Southwest 403 464 40,000  Level Washington Center
Sun 11:23:12 AM 37.8875 -75.5969 210° Southwest 403 464 40,000  Level Washington Center
Sun 11:24:12 AM 37.7914 -75.6706 211° Southwest 408 470 40,000  Level Washington Center
Sun 11:25:12 AM 37.6933 -75.7439 211° Southwest 413 475 40,000  Level Washington Center
Sun 11:26:12 AM 37.5953 -75.8172 211° Southwest 413 475 40,000  Level Washington Center
Sun 11:27:12 AM 37.4950 -75.8875 209° Southwest 413 475 40,000  Level Washington Center
Sun 11:28:12 AM 37.3883 -75.9422 202° Southwest 413 475 40,000  Level Washington Center
Sun 11:29:12 AM 37.2797 -75.9989 203° Southwest 413 475 40,000  Level Washington Center
Sun 11:30:12 AM 37.1733 -76.0558 203° Southwest 419 482 40,000  Level Washington Center
Sun 11:31:12 AM 37.0561 -76.1175 203° Southwest 419 482 40,000  Level Washington Center
Sun 11:32:12 AM 36.9453 -76.1714 201° Southwest 419 482 40,000  Level Washington Center
Sun 11:33:12 AM 36.8386 -76.2278 203° Southwest 424 488 40,000  Level Washington Center
Sun 11:34:12 AM 36.7339 -76.2864 204° Southwest 419 482 40,000  Level Washington Center
Sun 11:35:12 AM 36.6314 -76.3503 207° Southwest 419 482 40,000  Level Washington Center
Sun 11:36:12 AM 36.5267 -76.4061 203° Southwest 419 482 40,000  Level Washington Center
Sun 11:37:12 AM 36.4178 -76.4619 202° Southwest 419 482 40,000  Level Washington Center
Sun 11:38:12 AM 36.3153 -76.5200 205° Southwest 419 482 40,000 100 Level Washington Center
Sun 11:39:12 AM 36.2144 -76.5781 205° Southwest 419 482 40,200 550 Climbing Washington Center
Sun 11:40:12 AM 36.1325 -76.6644 220° Southwest 406 467 41,100 650 Climbing Washington Center
Sun 11:41:12 AM 36.0525 -76.7506 221° Southwest 394 453 41,500 350 Climbing Washington Center
Sun 11:42:12 AM 35.9700 -76.8444 223° Southwest 394 453 41,800 400 Climbing Washington Center
Sun 11:43:12 AM 35.8878 -76.9328 221° Southwest 394 453 42,300 550 Climbing Washington Center
Sun 11:44:12 AM 35.8053 -77.0186 220° Southwest 399 459 42,900 350 Climbing Washington Center
Sun 11:45:12 AM 35.7272 -77.1067 222° Southwest 394 453 43,000 50 Climbing Washington Center
Sun 11:46:12 AM 35.6572 -77.1872 223° Southwest 387 445 43,000  Level Washington Center
Sun 11:47:12 AM 35.5789 -77.2750 222° Southwest 382 440 43,000  Level Washington Center
Sun 11:48:12 AM 35.4961 -77.3600 220° Southwest 388 447 43,000  Level Washington Center
Sun 11:49:12 AM 35.4156 -77.4450 221° Southwest 388 447 43,000  Level Washington Center
Sun 11:50:12 AM 35.3350 -77.5322 221° Southwest 393 452 43,000  Level Washington Center
Sun 11:51:12 AM 35.2522 -77.6192 221° Southwest 393 452 43,000  Level Washington Center
Sun 11:52:12 AM 35.1714 -77.7061 221° Southwest 398 458 43,000  Level Washington Center
Sun 11:53:12 AM 35.0883 -77.7928 221° Southwest 398 458 43,000  Level Washington Center
Sun 11:54:12 AM 35.0033 -77.8817 221° Southwest 398 458 43,000  Level Washington Center
Sun 11:55:12 AM 34.9181 -77.9706 221° Southwest 398 458 43,000  Level Washington Center
Sun 11:56:12 AM 34.8350 -78.0617 222° Southwest 404 465 43,000  Level Washington Center
Sun 11:57:12 AM 34.7517 -78.1553 223° Southwest 389 448 43,000  Level Washington Center
Sun 11:58:12 AM 34.6683 -78.2408 220° Southwest 384 442 43,000  Level Washington Center
Sun 11:59:12 AM 34.5892 -78.3267 222° Southwest 384 442 43,000  Level Washington Center
Sun 12:00:19 PM 34.5017 -78.4156 220° Southwest 401 461 43,000  Level Jacksonville Center
Sun 12:01:19 PM 34.4192 -78.5031 221° Southwest 401 461 43,000  Level Jacksonville Center
Sun 12:02:19 PM 34.3306 -78.5956 221° Southwest 406 467 43,000  Level Jacksonville Center
Sun 12:03:19 PM 34.2439 -78.6853 221° Southwest 411 473 43,000 -100 Level Jacksonville Center
Sun 12:04:19 PM 34.1531 -78.7750 219° Southwest 416 479 42,800 -500 Descending Jacksonville Center
Sun 12:05:19 PM 34.0664 -78.8642 220° Southwest 416 479 42,000 -950 Descending Jacksonville Center
Sun 12:06:19 PM 33.9775 -78.9558 221° Southwest 416 479 40,900 -1,350 Descending Jacksonville Center
Sun 12:07:19 PM 33.8944 -79.0397 220° Southwest 411 473 39,300 -1,650 Descending Jacksonville Center
Sun 12:08:19 PM 33.8214 -79.1103 219° Southwest 380 437 37,600 -1,650 Descending Jacksonville Center
Sun 12:09:19 PM 33.7506 -79.1833 221° Southwest 355 409 36,000 -1,934 Descending Jacksonville Center
Sun 12:10:20 PM 33.6736 -79.2614 220° Southwest 329 379 33,700 -2,200 Descending Jacksonville Center
Sun 12:11:19 PM 33.6006 -79.3367 221° Southwest 329 379 31,600 -2,471 Descending Jacksonville Center
Sun 12:12:19 PM 33.5233 -79.4122 219° Southwest 342 394 28,800 -3,050 Descending Jacksonville Center
Sun 12:13:19 PM 33.4422 -79.4925 220° Southwest 363 418 25,500 -2,900 Descending Jacksonville Center
Sun 12:14:19 PM 33.3689 -79.5675 221° Southwest 380 437 23,000 -2,700 Descending Jacksonville Center
Sun 12:15:19 PM 33.2817 -79.6575 221° Southwest 407 468 20,100 -1,950 Descending Jacksonville Center
Sun 12:16:19 PM 33.1961 -79.7400 219° Southwest 413 475 19,100 -1,050 Descending Jacksonville Center
Sun 12:17:19 PM 33.1167 -79.8222 221° Southwest 402 463 18,000 300 Descending Jacksonville Center
Sun 12:18:19 PM 33.0411 -79.8967 220° Southwest 384 442 19,700 -50 Climbing Jacksonville Center
Sun 12:19:19 PM 32.9594 -79.9761 219° Southwest 376 433 17,900 -2,350 Descending Jacksonville Center
Sun 12:20:19 PM 32.8819 -80.0553 221° Southwest 376 433 15,000 -2,650 Descending Jacksonville Center
Sun 12:21:19 PM 32.8064 -80.1294 220° Southwest 371 427 12,600 -1,500 Descending Jacksonville Center
Sun 12:22:19 PM 32.7208 -80.1294 180° South 329 379 12,000 -300 Descending Jacksonville Center
Sun 12:23:19 PM 32.6344 -80.0928 160° South 306 352 12,000 -350 Level Jacksonville Center
Sun 12:24:19 PM 32.5556 -80.1050 187° South 314 361 11,300 -500 Descending Jacksonville Center
Sun 12:25:19 PM 32.5072 -80.1878 235° Southwest 275 316 11,000 -300 Descending Jacksonville Center
Sun 12:26:19 PM 32.4650 -80.2678 238° Southwest 280 322 10,700 -1,150 Descending Jacksonville Center
Sun 12:27:19 PM 32.4206 -80.3456 236° Southwest 291 335 8,700 -2,350 Descending Jacksonville Center
Sun 12:28:19 PM 32.3803 -80.4156 236° Southwest 284 327 6,000 -2,450 Descending Jacksonville Center
Sun 12:29:19 PM 32.3381 -80.5003 239° Southwest 266 306 3,800 -1,450 Descending Jacksonville Center
Sun 12:30:19 PM 32.3017 -80.5675 237° Southwest 276 318 3,100 -350 Descending Jacksonville Center
Sun 12:31:19 PM 32.2422 -80.6231 218° Southwest 258 297 3,100 -450 Level Jacksonville Center
Sun 12:32:19 PM 32.1928 -80.6636 215° Southwest 225 259 2,200 -900 Descending Jacksonville Center
Sun 12:33:19 PM 32.1747 -80.7033 242° Southwest 185 213 1,300 -850 Descending Jacksonville Center
Sun 12:34:19 PM 32.2022 -80.7150 340° North 92 106 500 -400 Descending Jacksonville Center
Sun 12:35:19 PM 32.2028 -80.7467 271° West 92 106 500  Level Jacksonville Center
Sun 12:37:00 PM 32.2244 -80.6975 16° North  Level Estimated
Sun 12:44:00 PM 32.2244 -80.6975 16° North  Level Estimated
Sun 12:45:00 PM 32.2244 -80.6975 16° North  Level Estimated
Sun 12:46:00 PM 32.2244 -80.6975 16° North  Level Estimated
Sun 12:47:00 PM 32.2244 -80.6975 16° North  Level Estimated
Sun 12:48:00 PM 32.2244 -80.6975 16° North  Level Estimated
Sun 12:49:00 PM 32.2244 -80.6975 16° North  Level Estimated
Sun 12:50:00 PM 32.2244 -80.6975 16° North  Level Estimated

Login

Don't have an account? Register now (free) for customized features, flight alerts, and more!